Time;durP1;ratioP1;P1;durP2;ratioP2;P2;SDS_P1;SDS_P2;PMS_P1;PMS_P2;Temp;Humidity;BMP_temperature;BMP_pressure;BME280_temperature;BME280_humidity;BME280_pressure;Samples;Min_cycle;Max_cycle;Signal;HPM_P1;HPM_P2
2021/10/24 00:01:03;;;;;;;34.70;9.75;;;;;;;2.25;86.49;100201.25;2217186;80;20974;-67
2021/10/24 00:04:04;;;;;;;33.25;8.28;;;;;;;2.18;86.49;100200.86;2216922;80;21024;-67
2021/10/24 00:07:04;;;;;;;30.52;8.28;;;;;;;2.11;87.26;100202.60;2248882;79;21004;-67
2021/10/24 00:10:05;;;;;;;38.33;9.23;;;;;;;2.02;87.07;100204.80;2217945;80;20976;-67
2021/10/24 00:13:05;;;;;;;32.93;8.68;;;;;;;1.93;87.09;100205.30;2257284;79;21000;-67
2021/10/24 00:16:06;;;;;;;31.35;8.40;;;;;;;1.83;86.94;100204.46;2216176;80;20976;-67
2021/10/24 00:19:06;;;;;;;32.63;8.73;;;;;;;1.74;86.88;100218.28;2252879;79;21008;-67
2021/10/24 00:22:06;;;;;;;32.67;9.05;;;;;;;1.62;86.84;100217.86;2218190;80;20968;-67
2021/10/24 00:25:07;;;;;;;33.55;9.03;;;;;;;1.56;87.12;100212.70;2242622;79;20985;-68
2021/10/24 00:28:07;;;;;;;31.15;9.43;;;;;;;1.50;87.27;100205.81;2217293;80;21546;-68
2021/10/24 00:31:08;;;;;;;31.25;9.83;;;;;;;1.50;87.27;100210.99;2246076;79;21500;-68
2021/10/24 00:34:08;;;;;;;35.50;10.40;;;;;;;1.51;86.95;100210.58;2257015;79;21024;-68
2021/10/24 00:37:09;;;;;;;39.20;11.38;;;;;;;1.49;87.31;100204.09;2216999;80;20988;-68
2021/10/24 00:40:09;;;;;;;36.88;10.03;;;;;;;1.51;86.81;100211.88;2207169;80;20977;-67
2021/10/24 00:43:09;;;;;;;37.65;10.10;;;;;;;1.54;86.93;100217.03;2207744;80;20993;-67
2021/10/24 00:46:10;;;;;;;33.33;10.95;;;;;;;1.55;86.71;100220.91;2208473;80;21052;-67
2021/10/24 00:49:10;;;;;;;33.42;10.93;;;;;;;1.63;87.05;100220.03;2208692;80;20981;-67
2021/10/24 00:52:11;;;;;;;43.08;11.90;;;;;;;1.62;86.52;100224.33;2210626;80;20961;-67
2021/10/24 00:55:12;;;;;;;34.92;11.70;;;;;;;1.62;86.59;100226.91;2209403;80;21104;-67
2021/10/24 00:58:13;;;;;;;33.00;10.23;;;;;;;1.58;86.80;100230.80;2209633;80;21844;-67
2021/10/24 01:01:13;;;;;;;35.15;9.93;;;;;;;1.56;86.85;100232.10;2208334;81;21088;-68
2021/10/24 01:04:13;;;;;;;28.52;9.95;;;;;;;1.49;86.84;100237.70;2249438;79;20992;-68
2021/10/24 01:07:17;;;;;;;35.88;10.43;;;;;;;1.47;86.82;100237.30;2217697;80;20992;-67
2021/10/24 01:10:16;;;;;;;38.67;9.98;;;;;;;1.56;87.05;100239.86;2211451;80;21483;-67
2021/10/24 01:13:17;;;;;;;30.88;10.40;;;;;;;1.60;86.73;100240.30;2252889;79;21016;-67
2021/10/24 01:16:17;;;;;;;34.45;10.78;;;;;;;1.64;86.60;100242.42;2206522;80;20984;-67
2021/10/24 01:19:18;;;;;;;35.20;10.00;;;;;;;1.65;86.62;100245.03;2212946;80;21063;-67
2021/10/24 01:22:18;;;;;;;36.55;10.48;;;;;;;1.68;86.90;100245.03;2250372;79;21518;-67
2021/10/24 01:25:18;;;;;;;34.92;9.58;;;;;;;1.70;86.66;100245.02;2216723;80;21439;-67
2021/10/24 01:28:19;;;;;;;31.10;9.18;;;;;;;1.74;86.60;100245.45;2240660;79;21127;-67
2021/10/24 01:31:19;;;;;;;33.63;9.55;;;;;;;1.77;86.56;100244.55;2215362;80;21007;-67
2021/10/24 01:34:21;;;;;;;38.17;10.08;;;;;;;1.80;86.70;100238.95;2245565;79;20990;-67
2021/10/24 01:37:22;;;;;;;38.33;10.65;;;;;;;1.90;86.90;100244.97;2217570;80;21035;-67
2021/10/24 01:40:22;;;;;;;37.28;10.72;;;;;;;2.01;86.98;100243.22;2213043;80;21067;-67
2021/10/24 01:43:23;;;;;;;34.33;10.23;;;;;;;2.07;86.83;100234.57;2259188;79;20997;-67
2021/10/24 01:46:23;;;;;;;40.35;10.85;;;;;;;2.10;86.60;100237.14;2216930;80;21040;-67
2021/10/24 01:49:24;;;;;;;38.90;11.00;;;;;;;2.11;86.59;100234.95;2207666;80;20985;-67
2021/10/24 01:52:24;;;;;;;35.58;10.45;;;;;;;2.14;86.45;100231.50;2210070;80;21007;-67
2021/10/24 01:55:25;;;;;;;34.30;10.80;;;;;;;2.18;86.74;100234.52;2207628;80;20977;-67
2021/10/24 01:58:25;;;;;;;35.70;10.88;;;;;;;2.25;86.74;100233.17;2209215;80;21452;-67
2021/10/24 02:01:26;;;;;;;34.95;10.68;;;;;;;2.38;86.82;100240.89;2209223;80;20981;-67
2021/10/24 02:04:26;;;;;;;37.95;10.72;;;;;;;2.42;86.64;100242.61;2208878;80;21052;-67
2021/10/24 02:07:27;;;;;;;37.73;11.22;;;;;;;2.45;86.62;100241.30;2209568;80;20989;-67
2021/10/24 02:10:27;;;;;;;35.03;9.65;;;;;;;2.48;86.55;100251.63;2209753;80;21044;-67
2021/10/24 02:13:28;;;;;;;35.65;10.20;;;;;;;2.51;86.59;100254.65;2257033;79;21012;-67
2021/10/24 02:16:28;;;;;;;32.80;9.98;;;;;;;2.58;86.60;100258.48;2259878;79;21489;-67
2021/10/24 02:19:29;;;;;;;33.75;10.68;;;;;;;2.66;86.62;100253.69;2216218;80;21515;-67
2021/10/24 02:22:29;;;;;;;34.43;10.08;;;;;;;2.72;86.50;100251.94;2200114;80;21592;-67
2021/10/24 02:25:30;;;;;;;36.90;10.40;;;;;;;2.79;86.44;100242.41;2208446;80;20958;-67
2021/10/24 02:28:30;;;;;;;34.30;10.82;;;;;;;2.77;86.54;100254.08;2209552;80;21024;-67
2021/10/24 02:31:31;;;;;;;37.38;10.00;;;;;;;2.74;86.58;100249.33;2210786;80;21038;-67
2021/10/24 02:34:31;;;;;;;32.95;9.90;;;;;;;2.69;86.79;100258.88;2210578;80;20984;-67
2021/10/24 02:37:31;;;;;;;32.08;9.58;;;;;;;2.61;87.44;100252.42;2258250;79;20993;-67
2021/10/24 02:40:32;;;;;;;32.78;9.65;;;;;;;2.61;87.36;100258.91;2217359;80;20988;-67
2021/10/24 02:43:33;;;;;;;32.55;9.43;;;;;;;2.67;87.36;100260.19;2253583;79;21498;-67
2021/10/24 02:46:33;;;;;;;30.70;9.40;;;;;;;2.71;87.55;100260.57;2213730;80;21517;-67
2021/10/24 02:49:34;;;;;;;35.03;9.70;;;;;;;2.77;87.18;100257.96;2253707;79;21036;-67
2021/10/24 02:52:34;;;;;;;32.65;9.55;;;;;;;2.82;87.26;100268.30;2259125;78;20971;-67
2021/10/24 02:55:35;;;;;;;34.38;10.00;;;;;;;2.78;87.21;100270.47;2218024;80;20976;-67
2021/10/24 02:58:35;;;;;;;35.85;11.18;;;;;;;2.75;87.72;100276.97;2208135;80;20969;-67
2021/10/24 03:01:36;;;;;;;32.78;9.83;;;;;;;2.72;87.58;100275.70;2207393;80;20993;-67
2021/10/24 03:04:37;;;;;;;36.15;10.65;;;;;;;2.71;87.66;100272.67;2263140;79;21019;-67
2021/10/24 03:07:37;;;;;;;33.25;10.10;;;;;;;2.75;87.63;100275.68;2209403;80;21053;-67
2021/10/24 03:10:38;;;;;;;34.75;11.25;;;;;;;2.76;87.70;100282.59;2250279;79;20962;-67
2021/10/24 03:13:39;;;;;;;33.13;10.50;;;;;;;2.78;87.50;100287.31;2215769;80;21015;-67
2021/10/24 03:16:39;;;;;;;34.38;10.55;;;;;;;2.85;87.52;100297.23;2208472;80;20984;-67
2021/10/24 03:19:41;;;;;;;36.58;10.82;;;;;;;2.87;87.49;100294.17;2208751;80;21149;-67
2021/10/24 03:22:41;;;;;;;35.78;10.98;;;;;;;2.87;87.29;100299.36;2210753;80;21491;-67
2021/10/24 03:25:42;;;;;;;36.28;10.82;;;;;;;2.87;86.93;100301.95;2207947;80;21031;-67
2021/10/24 03:28:42;;;;;;;39.80;12.37;;;;;;;2.74;86.92;100302.04;2209607;80;20992;-67
2021/10/24 03:31:43;;;;;;;33.85;11.95;;;;;;;2.65;86.64;100300.77;2210494;80;21075;-67
2021/10/24 03:34:43;;;;;;;37.88;11.68;;;;;;;2.57;86.33;100301.23;2209842;80;21024;-68
2021/10/24 03:37:43;;;;;;;34.78;10.85;;;;;;;2.50;86.36;100300.84;2210303;80;21566;-67
2021/10/24 03:40:44;;;;;;;37.23;11.28;;;;;;;2.49;86.44;100305.61;2207725;80;21000;-67
2021/10/24 03:43:45;;;;;;;35.55;11.30;;;;;;;2.49;86.62;100300.43;2209384;80;21068;-67
2021/10/24 03:46:45;;;;;;;33.65;11.18;;;;;;;2.43;86.37;100315.12;2208689;80;21048;-67
2021/10/24 03:49:45;;;;;;;39.85;12.43;;;;;;;2.40;86.37;100311.25;2208804;80;20929;-67
2021/10/24 03:52:46;;;;;;;36.68;11.57;;;;;;;2.34;86.26;100313.88;2209478;80;21091;-67
2021/10/24 03:55:46;;;;;;;38.30;11.40;;;;;;;2.30;86.36;100322.92;2207314;80;21016;-67
2021/10/24 03:58:47;;;;;;;35.00;10.90;;;;;;;2.25;86.46;100328.97;2209796;80;21472;-67
2021/10/24 04:01:47;;;;;;;33.75;10.93;;;;;;;2.25;86.60;100322.95;2208627;80;21459;-67
2021/10/24 04:04:48;;;;;;;37.83;12.23;;;;;;;2.25;86.56;100333.30;2208762;80;20993;-67
2021/10/24 04:07:48;;;;;;;37.28;11.18;;;;;;;2.24;86.59;100330.28;2209514;80;21075;-67
2021/10/24 04:10:49;;;;;;;35.03;11.25;;;;;;;2.20;86.23;100338.95;2209626;80;21072;-67
2021/10/24 04:13:49;;;;;;;40.12;12.95;;;;;;;2.09;86.09;100333.78;2210018;80;20944;-67
2021/10/24 04:16:50;;;;;;;36.48;11.57;;;;;;;2.03;86.33;100338.53;2209341;80;21066;-67
2021/10/24 04:19:50;;;;;;;41.13;13.15;;;;;;;2.00;86.28;100337.70;2209392;80;21516;-67
2021/10/24 04:22:51;;;;;;;42.40;12.55;;;;;;;2.00;86.39;100341.58;2209715;80;21548;-67
2021/10/24 04:25:53;;;;;;;34.35;11.80;;;;;;;1.98;86.42;100334.23;2212757;80;21065;-68
2021/10/24 04:28:54;;;;;;;35.48;12.10;;;;;;;1.96;86.57;100338.11;2209784;80;21035;-68
2021/10/24 04:31:54;;;;;;;36.40;12.30;;;;;;;1.93;86.41;100340.71;2208614;80;21483;-67
2021/10/24 04:34:55;;;;;;;40.85;14.23;;;;;;;1.84;86.37;100335.12;2209642;80;21025;-67
2021/10/24 04:37:55;;;;;;;45.12;17.37;;;;;;;1.79;86.47;100345.89;2208693;80;21515;-68
2021/10/24 04:40:55;;;;;;;50.12;18.37;;;;;;;1.75;86.41;100348.05;2209435;80;21531;-67
2021/10/24 04:43:56;;;;;;;53.15;21.90;;;;;;;1.71;86.52;100359.25;2209625;80;21023;-67
2021/10/24 04:46:57;;;;;;;46.53;18.00;;;;;;;1.69;86.59;100361.84;2209363;80;20992;-67
2021/10/24 04:49:57;;;;;;;77.35;27.35;;;;;;;1.70;87.00;100363.58;2210494;80;21055;-67
2021/10/24 04:52:58;;;;;;;109.25;42.40;;;;;;;1.70;87.11;100360.99;2208548;80;20977;-67
2021/10/24 04:55:58;;;;;;;67.32;27.45;;;;;;;1.55;87.22;100365.74;2208733;80;21037;-67
2021/10/24 04:58:58;;;;;;;61.65;22.90;;;;;;;1.46;87.49;100367.02;2210203;80;21734;-67
2021/10/24 05:01:59;;;;;;;54.27;20.97;;;;;;;1.45;87.03;100358.84;2207610;80;20983;-67
2021/10/24 05:04:59;;;;;;;56.15;22.75;;;;;;;1.36;86.30;100370.45;2209311;80;21080;-67
2021/10/24 05:08:00;;;;;;;61.80;23.83;;;;;;;1.27;86.43;100373.89;2210661;80;21035;-67
2021/10/24 05:11:00;;;;;;;76.35;25.77;;;;;;;1.20;86.24;100376.88;2209027;80;20984;-68
2021/10/24 05:14:01;;;;;;;79.35;24.77;;;;;;;1.15;86.34;100373.45;2208616;80;21024;-67
2021/10/24 05:17:01;;;;;;;66.67;22.95;;;;;;;1.17;86.63;100377.33;2208642;80;20988;-67
2021/10/24 05:20:02;;;;;;;66.22;24.12;;;;;;;1.23;86.80;100376.47;2210531;80;20976;-67
2021/10/24 05:23:02;;;;;;;84.07;29.63;;;;;;;1.26;86.89;100374.73;2209897;80;21040;-67
2021/10/24 05:26:04;;;;;;;92.40;33.10;;;;;;;1.28;86.62;100380.80;2209939;80;21479;-67
2021/10/24 05:29:05;;;;;;;74.42;28.45;;;;;;;1.27;86.64;100386.81;2209966;80;21003;-67
2021/10/24 05:32:05;;;;;;;73.57;26.80;;;;;;;1.29;86.57;100390.70;2208702;80;21039;-67
2021/10/24 05:35:06;;;;;;;66.55;24.90;;;;;;;1.24;86.45;100386.81;2209922;80;20969;-67
2021/10/24 05:38:06;;;;;;;75.15;26.15;;;;;;;1.18;86.35;100394.56;2208485;80;21507;-67
2021/10/24 05:41:07;;;;;;;62.40;23.47;;;;;;;1.14;86.21;100396.27;2208921;80;21020;-67
2021/10/24 05:44:07;;;;;;;60.28;22.45;;;;;;;1.06;85.39;100400.98;2208496;80;20976;-66
2021/10/24 05:47:07;;;;;;;58.52;21.90;;;;;;;0.97;85.35;100404.40;2208986;80;20981;-67
2021/10/24 05:50:08;;;;;;;65.52;22.05;;;;;;;0.93;85.31;100406.53;2209467;80;21107;-67
2021/10/24 05:53:09;;;;;;;53.05;20.30;;;;;;;0.91;85.57;100403.09;2209756;80;20988;-67
2021/10/24 05:56:09;;;;;;;54.08;20.88;;;;;;;0.89;85.60;100413.42;2210461;80;21460;-67
2021/10/24 05:59:10;;;;;;;46.95;16.67;;;;;;;0.90;85.84;100421.59;2210494;80;21052;-68
2021/10/24 06:02:10;;;;;;;47.38;18.67;;;;;;;0.93;85.67;100417.72;2209830;80;21031;-67
2021/10/24 06:05:10;;;;;;;54.25;20.48;;;;;;;0.98;85.83;100420.34;2210899;80;20960;-68
2021/10/24 06:08:21;;;;;;;167.53;58.38;;;;;;;1.09;86.44;100420.37;2209772;80;21088;-67
2021/10/24 06:11:19;;;;;;;105.20;41.28;;;;;;;1.24;86.56;100425.59;2216886;80;21031;-67
2021/10/24 06:14:15;;;;;;;77.03;31.97;;;;;;;1.36;86.43;100439.83;2205257;80;21119;-67
2021/10/24 06:17:16;;;;;;;88.12;34.63;;;;;;;1.52;86.54;100438.16;2209544;80;20985;-67
2021/10/24 06:20:16;;;;;;;80.20;30.75;;;;;;;1.64;86.34;100439.90;2209657;80;21068;-67
2021/10/24 06:23:17;;;;;;;72.47;27.90;;;;;;;1.77;86.22;100440.77;2209705;80;21012;-67
2021/10/24 06:26:17;;;;;;;59.60;22.22;;;;;;;1.90;85.98;100442.94;2209845;80;21049;-67
2021/10/24 06:29:18;;;;;;;60.80;23.57;;;;;;;2.08;85.90;100443.35;2207496;80;20980;-67
2021/10/24 06:32:18;;;;;;;47.83;17.35;;;;;;;2.21;85.76;100440.33;2210890;80;20996;-67
2021/10/24 06:35:19;;;;;;;46.75;17.45;;;;;;;2.41;85.77;100454.13;2210525;80;21507;-67
2021/10/24 06:38:20;;;;;;;54.05;23.62;;;;;;;2.57;85.50;100448.48;2208843;80;20984;-67
2021/10/24 06:41:21;;;;;;;49.10;17.92;;;;;;;2.64;85.19;100451.91;2206442;80;21567;-67
2021/10/24 06:44:21;;;;;;;44.30;17.25;;;;;;;2.67;85.14;100454.52;2208531;80;21024;-67
2021/10/24 06:47:22;;;;;;;43.98;15.38;;;;;;;2.69;85.14;100452.77;2209694;80;21092;-66
2021/10/24 06:50:22;;;;;;;41.90;16.07;;;;;;;2.68;85.17;100454.92;2209560;80;21071;-67
2021/10/24 06:53:22;;;;;;;38.28;14.55;;;;;;;2.74;85.40;100452.75;2210263;80;21055;-67
2021/10/24 06:56:23;;;;;;;39.70;14.73;;;;;;;2.85;85.57;100454.02;2210221;81;21495;-66
2021/10/24 06:59:23;;;;;;;41.00;15.83;;;;;;;2.90;85.62;100457.44;2210332;80;21478;-67
2021/10/24 07:02:24;;;;;;;41.45;15.75;;;;;;;2.99;85.71;100464.32;2208822;80;20969;-67
2021/10/24 07:05:24;;;;;;;43.17;15.03;;;;;;;3.16;85.93;100462.96;2209275;80;20960;-66
2021/10/24 07:08:25;;;;;;;36.80;13.03;;;;;;;3.32;85.79;100464.63;2208170;80;20992;-66
2021/10/24 07:11:25;;;;;;;41.37;12.80;;;;;;;3.33;85.61;100460.30;2210537;80;21024;-67
2021/10/24 07:14:26;;;;;;;37.88;12.98;;;;;;;3.31;85.87;100469.38;2209265;80;20981;-67
2021/10/24 07:17:26;;;;;;;39.00;13.75;;;;;;;3.37;85.59;100473.23;2210055;80;21008;-67
2021/10/24 07:20:28;;;;;;;39.88;14.10;;;;;;;3.41;85.86;100482.72;2209061;80;21040;-66
2021/10/24 07:23:28;;;;;;;36.67;12.57;;;;;;;3.54;85.95;100483.52;2210728;80;20985;-67
2021/10/24 07:26:29;;;;;;;32.98;11.65;;;;;;;3.73;86.00;100492.50;2208573;80;21548;-66
2021/10/24 07:29:30;;;;;;;34.78;11.48;;;;;;;3.76;85.82;100485.54;2210220;80;21013;-66
2021/10/24 07:32:30;;;;;;;33.40;11.73;;;;;;;3.89;85.49;100491.95;2208469;80;21044;-67
2021/10/24 07:35:31;;;;;;;33.18;11.68;;;;;;;3.99;85.40;100488.00;2209303;80;20993;-66
2021/10/24 07:38:33;;;;;;;33.10;11.75;;;;;;;4.06;85.25;100493.98;2209794;80;20961;-66
2021/10/24 07:41:34;;;;;;;32.98;10.63;;;;;;;4.22;84.89;100497.77;2208923;80;21525;-66
2021/10/24 07:44:35;;;;;;;37.48;10.90;;;;;;;4.42;85.40;100503.65;2208482;80;21039;-66
2021/10/24 07:47:35;;;;;;;31.10;10.75;;;;;;;4.60;84.84;100503.08;2210592;80;21084;-66
2021/10/24 07:50:35;;;;;;;29.67;10.18;;;;;;;4.75;84.10;100505.50;2207655;80;20977;-66
2021/10/24 07:53:38;;;;;;;35.68;11.10;;;;;;;4.85;83.49;100511.02;2182721;80;21009;-67
2021/10/24 07:56:38;;;;;;;32.25;10.60;;;;;;;4.98;84.30;100515.66;2207581;80;20971;-66
2021/10/24 07:59:39;;;;;;;34.80;10.70;;;;;;;5.04;83.11;100510.83;2209706;80;21028;-66
2021/10/24 08:02:39;;;;;;;31.30;10.78;;;;;;;5.12;83.07;100511.61;2208651;80;21060;-66
2021/10/24 08:05:39;;;;;;;30.20;10.93;;;;;;;5.28;84.13;100508.83;2209692;80;21522;-66
2021/10/24 08:08:40;;;;;;;33.78;11.60;;;;;;;5.54;83.42;100510.63;2210411;80;21416;-66
2021/10/24 08:11:40;;;;;;;35.10;10.88;;;;;;;5.73;83.76;100503.45;2208876;80;21045;-66
2021/10/24 08:14:41;;;;;;;33.13;11.28;;;;;;;5.99;82.82;100506.16;2207587;80;21000;-66
2021/10/24 08:17:41;;;;;;;34.83;10.15;;;;;;;6.15;82.39;100505.47;2210631;80;20973;-66
2021/10/24 08:20:45;;;;;;;35.63;11.22;;;;;;;6.28;81.17;100506.55;2210262;80;21001;-66
2021/10/24 08:23:45;;;;;;;32.30;9.83;;;;;;;6.36;81.31;100509.44;2208487;80;21022;-66
2021/10/24 08:26:45;;;;;;;28.27;9.50;;;;;;;6.35;79.94;100515.56;2256778;79;20992;-66
2021/10/24 08:29:46;;;;;;;29.95;10.35;;;;;;;6.45;81.52;100509.76;2254609;78;20965;-66
2021/10/24 08:32:47;;;;;;;35.65;10.78;;;;;;;6.57;79.59;100518.66;2216886;80;21472;-66
2021/10/24 08:35:58;;;;;;;;;;;;;;;;;;;;;
2021/10/24 08:39:05;;;;;;;31.68;11.12;;;;;;;7.07;81.25;100510.78;2261018;79;22882;-66
2021/10/24 08:42:06;;;;;;;32.65;11.68;;;;;;;7.35;81.14;100512.83;2227617;80;21080;-66
2021/10/24 08:45:07;;;;;;;32.48;11.10;;;;;;;7.67;80.85;100509.11;2227609;80;21012;-66
2021/10/24 08:48:08;;;;;;;30.48;9.68;;;;;;;7.90;80.26;100512.08;2228043;80;21471;-66
2021/10/24 08:51:10;;;;;;;36.98;11.03;;;;;;;7.74;78.73;100504.16;2227914;80;21014;-66
2021/10/24 08:54:11;;;;;;;34.08;10.55;;;;;;;7.81;79.42;100510.97;2228086;80;20956;-66
2021/10/24 08:57:12;;;;;;;37.58;11.35;;;;;;;7.68;76.05;100509.53;2227873;80;20980;-67
2021/10/24 09:00:12;;;;;;;34.30;10.98;;;;;;;7.53;78.37;100508.98;2227914;80;21027;-66
2021/10/24 09:03:13;;;;;;;35.98;11.95;;;;;;;7.67;78.59;100507.81;2227890;80;21051;-66
2021/10/24 09:06:13;;;;;;;30.25;9.35;;;;;;;8.07;78.74;100516.04;2228100;80;20964;-66
2021/10/24 09:09:13;;;;;;;31.17;9.43;;;;;;;8.18;76.46;100516.64;2228130;80;20929;-65
2021/10/24 09:12:14;;;;;;;30.43;9.13;;;;;;;8.35;78.36;100518.85;2228024;80;21016;-66
2021/10/24 09:15:14;;;;;;;35.92;9.30;;;;;;;8.79;78.69;100520.81;2228008;80;20980;-65
2021/10/24 09:18:15;;;;;;;33.08;10.48;;;;;;;9.19;78.32;100526.70;2227992;80;20952;-65
2021/10/24 09:21:15;;;;;;;36.30;9.25;;;;;;;9.47;73.50;100530.70;2227922;80;21451;-65
2021/10/24 09:24:16;;;;;;;31.68;7.97;;;;;;;9.38;75.64;100530.98;2228001;80;21448;-65
2021/10/24 09:27:16;;;;;;;33.45;9.73;;;;;;;9.39;72.89;100535.30;2227870;80;20976;-65
2021/10/24 09:30:17;;;;;;;34.88;9.73;;;;;;;9.08;73.31;100532.68;2227920;80;20999;-66
2021/10/24 09:33:19;;;;;;;29.15;9.83;;;;;;;8.82;74.18;100536.42;2227919;80;20964;-66
2021/10/24 09:36:19;;;;;;;26.17;8.95;;;;;;;8.58;73.92;100531.84;2228004;80;21086;-67
2021/10/24 09:39:20;;;;;;;29.95;9.50;;;;;;;8.41;75.37;100534.84;2221744;80;21099;-66
2021/10/24 09:42:22;;;;;;;29.00;9.05;;;;;;;8.42;76.55;100531.30;2221668;80;21000;-65
2021/10/24 09:45:22;;;;;;;33.50;9.40;;;;;;;8.44;75.49;100534.76;2221932;80;20937;-66
2021/10/24 09:48:23;;;;;;;31.77;9.43;;;;;;;8.49;76.90;100535.09;2221527;80;20977;-66
2021/10/24 09:51:24;;;;;;;29.55;9.35;;;;;;;9.13;76.54;100533.42;2221093;80;20979;-66
2021/10/24 09:54:24;;;;;;;30.65;8.90;;;;;;;9.49;77.05;100534.12;2220893;80;20981;-66
2021/10/24 09:57:25;;;;;;;28.57;7.85;;;;;;;9.78;75.25;100525.84;2220896;80;20997;-66
2021/10/24 10:00:25;;;;;;;24.72;6.65;;;;;;;10.16;75.46;100521.63;2220945;80;20987;-66
2021/10/24 10:03:26;;;;;;;22.65;6.40;;;;;;;10.29;70.29;100525.56;2220608;80;21047;-66
2021/10/24 10:06:28;;;;;;;27.20;7.12;;;;;;;9.98;72.06;100513.89;2221219;80;20976;-65
2021/10/24 10:09:29;;;;;;;24.27;6.65;;;;;;;10.04;72.10;100517.61;2193052;80;20981;-66
2021/10/24 10:12:33;;;;;;;26.97;7.05;;;;;;;10.17;71.46;100522.89;2221194;80;20995;-66
2021/10/24 10:15:31;;;;;;;27.45;7.20;;;;;;;10.16;71.61;100529.50;2193095;80;20965;-65
2021/10/24 10:18:32;;;;;;;25.40;7.00;;;;;;;10.06;71.86;100527.16;2221086;80;21032;-66
2021/10/24 10:21:33;;;;;;;23.38;6.25;;;;;;;10.41;72.60;100528.27;2221063;80;21011;-66
2021/10/24 10:24:33;;;;;;;25.32;6.97;;;;;;;10.92;69.66;100536.58;2221169;80;21518;-66
2021/10/24 10:27:34;;;;;;;22.58;5.55;;;;;;;10.79;70.55;100527.42;2220855;80;21023;-66
2021/10/24 10:30:35;;;;;;;25.08;5.87;;;;;;;11.19;72.22;100526.02;2221143;80;21035;-66
2021/10/24 10:33:36;;;;;;;22.13;5.20;;;;;;;11.82;67.83;100527.17;2221080;80;20986;-66
2021/10/24 10:36:37;;;;;;;18.35;4.25;;;;;;;11.40;64.70;100532.22;2220852;80;21554;-67
2021/10/24 10:39:37;;;;;;;21.07;4.65;;;;;;;10.79;64.85;100530.48;2220653;80;20979;-65
2021/10/24 10:42:42;;;;;;;22.62;4.60;;;;;;;10.33;67.51;100527.18;2220253;80;21016;-67
2021/10/24 10:45:40;;;;;;;23.60;4.72;;;;;;;10.08;68.71;100526.26;2190481;80;21039;-67
2021/10/24 10:48:41;;;;;;;22.42;4.83;;;;;;;9.96;68.29;100528.36;2220198;80;21080;-66
2021/10/24 10:51:42;;;;;;;19.30;4.22;;;;;;;9.88;68.15;100529.04;2220625;80;21066;-66
2021/10/24 10:54:43;;;;;;;24.60;4.70;;;;;;;9.90;68.39;100528.55;2220677;80;20964;-66
2021/10/24 10:57:43;;;;;;;20.85;4.47;;;;;;;9.90;69.73;100533.80;2220471;80;21058;-66
2021/10/24 11:00:44;;;;;;;18.75;4.05;;;;;;;9.75;69.01;100522.00;2220455;80;21562;-66
2021/10/24 11:03:44;;;;;;;17.60;3.62;;;;;;;9.63;67.38;100532.41;2220535;80;21077;-66
2021/10/24 11:06:45;;;;;;;19.42;3.92;;;;;;;9.59;66.74;100520.77;2220901;80;21007;-66
2021/10/24 11:09:45;;;;;;;19.17;3.50;;;;;;;10.08;67.10;100523.64;2220518;80;20976;-66
2021/10/24 11:12:47;;;;;;;18.85;3.87;;;;;;;10.52;66.14;100518.73;2220698;80;21015;-66
2021/10/24 11:15:47;;;;;;;17.27;3.15;;;;;;;10.94;65.31;100515.52;2220549;80;21071;-66
2021/10/24 11:18:47;;;;;;;14.55;2.85;;;;;;;11.42;63.70;100515.08;2220597;80;21490;-66
2021/10/24 11:21:48;;;;;;;19.65;3.67;;;;;;;11.74;63.04;100502.03;2220634;80;21012;-67
2021/10/24 11:24:48;;;;;;;25.32;5.37;;;;;;;12.16;64.29;100503.52;2220460;80;21040;-66
2021/10/24 11:27:49;;;;;;;13.75;3.05;;;;;;;12.43;58.21;100506.30;2220728;80;20964;-66
2021/10/24 11:30:50;;;;;;;17.60;3.85;;;;;;;12.07;55.88;100507.38;2220861;80;21030;-66
2021/10/24 11:33:50;;;;;;;16.77;3.20;;;;;;;12.03;60.11;100503.16;2220498;80;21102;-66
2021/10/24 11:36:51;;;;;;;17.67;3.60;;;;;;;12.32;58.61;100497.16;2220428;80;20996;-67
2021/10/24 11:39:55;;;;;;;17.70;4.20;;;;;;;12.09;58.74;100492.38;2220569;80;21011;-66
2021/10/24 11:42:54;;;;;;;;;;;;;;;12.12;59.68;100494.87;2192777;80;21012;-66
2021/10/24 11:45:55;;;;;;;18.42;4.00;;;;;;;11.94;59.02;100489.92;2220654;80;20148;-66
2021/10/24 11:51:57;;;;;;;21.57;4.62;;;;;;;11.18;60.35;100495.39;2190412;80;20968;-66
2021/10/24 11:54:58;;;;;;;21.75;4.03;;;;;;;10.97;61.61;100495.72;2220413;80;21531;-67
2021/10/24 11:58:05;;;;;;;17.98;3.70;;;;;;;10.91;62.37;100493.32;2220389;80;21029;-66
2021/10/24 12:01:01;;;;;;;19.73;3.90;;;;;;;11.37;62.57;100491.62;2190385;80;20996;-66
2021/10/24 12:04:03;;;;;;;18.25;3.52;;;;;;;11.66;61.86;100490.95;2220582;80;21466;-66
2021/10/24 12:07:05;;;;;;;22.13;4.22;;;;;;;11.92;62.92;100483.81;2220702;80;20998;-66
2021/10/24 12:10:06;;;;;;;17.05;3.65;;;;;;;12.39;61.37;100483.66;2220624;80;21101;-66
2021/10/24 12:13:06;;;;;;;22.02;4.50;;;;;;;12.27;58.18;100481.09;2220743;80;21020;-67
2021/10/24 12:16:06;;;;;;;21.42;4.45;;;;;;;12.37;60.79;100476.31;2220572;80;20968;-67
2021/10/24 12:19:07;;;;;;;20.52;4.03;;;;;;;12.38;60.46;100471.42;2220450;80;20988;-65
2021/10/24 12:22:08;;;;;;;19.15;3.70;;;;;;;12.63;59.60;100484.87;2220524;80;21111;-66
2021/10/24 12:25:10;;;;;;;16.52;3.40;;;;;;;12.38;57.79;100470.11;2220699;80;20976;-66
2021/10/24 12:28:12;;;;;;;19.17;3.80;;;;;;;12.43;59.19;100469.46;2220702;80;21072;-66
2021/10/24 12:31:14;;;;;;;14.00;3.15;;;;;;;12.63;57.51;100474.34;2220674;80;21025;-66
2021/10/24 12:34:15;;;;;;;;;;;;;;;12.58;56.91;100465.78;2223056;80;21076;-66
2021/10/24 12:37:15;;;;;;;20.02;3.20;;;;;;;12.70;56.08;100458.67;2220394;80;20144;-66
2021/10/24 12:40:16;;;;;;;14.05;2.95;;;;;;;12.72;54.59;100463.87;2220940;80;20975;-67
2021/10/24 12:43:16;;;;;;;19.98;3.50;;;;;;;12.58;57.32;100462.67;2221077;80;20937;-68
2021/10/24 12:46:16;;;;;;;16.67;4.37;;;;;;;12.46;52.96;100462.75;2220812;80;21003;-68
2021/10/24 12:49:17;;;;;;;17.73;3.60;;;;;;;12.37;56.95;100455.70;2220839;80;21012;-66
2021/10/24 12:52:18;;;;;;;21.52;4.70;;;;;;;12.58;56.78;100463.14;2220823;80;21427;-67
2021/10/24 12:55:18;;;;;;;19.15;4.50;;;;;;;12.27;54.82;100456.58;2220948;80;20956;-66
2021/10/24 12:58:18;;;;;;;21.62;4.60;;;;;;;11.94;56.59;100457.89;2220758;80;21032;-67
2021/10/24 13:01:19;;;;;;;20.35;4.33;;;;;;;11.76;56.42;100456.81;2220908;80;21042;-66
2021/10/24 13:04:20;;;;;;;17.73;4.20;;;;;;;11.85;56.31;100451.67;2220848;80;21004;-66
2021/10/24 13:07:20;;;;;;;20.75;4.00;;;;;;;11.81;56.34;100452.71;2220977;80;20968;-66
2021/10/24 13:10:21;;;;;;;22.25;4.28;;;;;;;11.59;56.39;100457.95;2220817;80;21510;-66
2021/10/24 13:13:21;;;;;;;16.57;3.83;;;;;;;11.55;55.43;100446.72;2220902;80;20937;-66
2021/10/24 13:16:21;;;;;;;23.20;4.83;;;;;;;11.47;56.44;100451.88;2220827;80;21470;-66
2021/10/24 13:19:22;;;;;;;21.68;3.75;;;;;;;11.50;57.43;100449.12;2221031;80;20964;-66
2021/10/24 13:25:25;;;;;;;18.95;3.67;;;;;;;11.62;57.40;100445.99;2193266;80;20988;-66
2021/10/24 13:28:25;;;;;;;15.50;3.30;;;;;;;11.65;55.91;100445.90;2221208;80;21012;-69
2021/10/24 13:31:26;;;;;;;20.17;3.50;;;;;;;11.53;55.36;100441.11;2220958;80;20976;-66
2021/10/24 13:34:26;;;;;;;18.45;3.60;;;;;;;11.40;55.19;100440.73;2221081;80;21448;-66
2021/10/24 13:37:27;;;;;;;18.25;3.60;;;;;;;11.40;56.17;100438.11;2220278;80;20969;-66
2021/10/24 13:40:27;;;;;;;19.75;4.10;;;;;;;11.33;55.62;100437.48;2210323;81;20968;-66
2021/10/24 13:43:28;;;;;;;19.55;3.83;;;;;;;11.27;55.44;100430.69;2210593;81;20961;-65
2021/10/24 13:46:28;;;;;;;19.48;4.35;;;;;;;11.41;56.26;100430.16;2210352;80;21033;-66
2021/10/24 13:49:29;;;;;;;17.23;4.00;;;;;;;11.60;56.85;100426.81;2210398;81;20969;-66
2021/10/24 13:52:29;;;;;;;20.40;4.53;;;;;;;11.71;54.83;100436.89;2210298;81;21599;-69
2021/10/24 13:55:30;;;;;;;20.70;4.45;;;;;;;11.52;56.30;100427.57;2210336;80;21526;-66
2021/10/24 13:58:33;;;;;;;21.95;5.03;;;;;;;11.78;57.23;100426.08;2210165;81;21031;-66